createdAt,value
2023-05-16T00:00:35.233Z,99327.25
2023-05-16T00:04:39.789Z,99334.31
2023-05-16T00:08:43.081Z,99316.66
2023-05-16T00:12:50.098Z,99319.31
2023-05-16T00:16:53.455Z,99313.97
2023-05-16T00:20:57.958Z,99309.53
2023-05-16T00:25:01.134Z,99314.94
2023-05-16T00:29:04.173Z,99317.69
2023-05-16T00:33:07.223Z,99312.47
2023-05-16T00:37:11.691Z,99308.97
2023-05-16T00:41:14.900Z,99309.81
2023-05-16T00:45:17.889Z,99302.72
2023-05-16T00:49:21.351Z,99300.13
2023-05-16T00:53:26.645Z,99294.00
2023-05-16T00:57:29.778Z,99292.25
2023-05-16T01:01:33.976Z,99302.84
2023-05-16T01:05:37.086Z,99301.03
2023-05-16T01:09:42.038Z,99288.69
2023-05-16T01:13:55.644Z,99276.34
2023-05-16T01:18:04.669Z,99295.88
2023-05-16T01:22:15.590Z,99294.16
2023-05-16T01:26:22.518Z,99289.81
2023-05-16T01:30:25.823Z,99296.06
2023-05-16T01:34:28.895Z,99295.22
2023-05-16T01:38:38.768Z,99298.81
2023-05-16T01:42:46.709Z,99298.84
2023-05-16T01:46:52.926Z,99288.31
2023-05-16T01:50:57.912Z,99281.34
2023-05-16T01:55:03.678Z,99283.22
2023-05-16T01:59:09.935Z,99272.69
2023-05-16T02:03:13.095Z,99268.25
2023-05-16T02:07:16.300Z,99268.22
2023-05-16T02:11:22.221Z,99270.88
2023-05-16T02:15:27.088Z,99282.38
2023-05-16T02:19:30.267Z,99281.44
2023-05-16T02:23:33.288Z,99275.31
2023-05-16T02:27:36.331Z,99268.28
2023-05-16T02:31:42.793Z,99264.78
2023-05-16T02:35:45.884Z,99264.81
2023-05-16T02:39:48.939Z,99266.59
2023-05-16T02:43:52.540Z,99275.47
2023-05-16T02:47:57.046Z,99273.69
2023-05-16T02:52:00.064Z,99274.59
2023-05-16T02:56:06.921Z,99254.38
2023-05-16T03:00:11.635Z,99249.16
2023-05-16T03:04:16.900Z,99246.50
2023-05-16T03:08:19.953Z,99244.78
2023-05-16T03:12:23.306Z,99250.06
2023-05-16T03:16:27.087Z,99247.44
2023-05-16T03:20:31.727Z,99239.50
2023-05-16T03:24:34.815Z,99238.75
2023-05-16T03:28:38.349Z,99232.69
2023-05-16T03:32:41.447Z,99232.78
2023-05-16T03:36:45.935Z,99219.56
2023-05-16T03:40:48.958Z,99232.75
2023-05-16T03:44:52.018Z,99254.72
2023-05-16T03:48:55.009Z,99247.69
2023-05-16T03:52:59.524Z,99247.69
2023-05-16T03:57:02.580Z,99266.22
2023-05-16T04:01:05.743Z,99274.13
2023-05-16T04:05:10.437Z,99274.97
2023-05-16T04:09:14.946Z,99265.22
2023-05-16T04:13:18.500Z,99270.47
2023-05-16T04:17:21.597Z,99255.44
2023-05-16T04:21:24.647Z,99240.44
2023-05-16T04:25:29.356Z,99249.19
2023-05-16T04:29:33.158Z,99257.09
2023-05-16T04:33:36.248Z,99251.78
2023-05-16T04:37:39.504Z,99252.63
2023-05-16T04:41:43.854Z,99256.25
2023-05-16T04:45:47.201Z,99266.84
2023-05-16T04:49:50.169Z,99289.75
2023-05-16T04:53:53.149Z,99301.16
2023-05-16T04:57:57.538Z,99316.91
2023-05-16T05:02:00.684Z,99319.53
2023-05-16T05:06:03.742Z,99301.78
2023-05-16T05:10:07.774Z,99300.81
2023-05-16T05:14:12.557Z,99296.31
2023-05-16T05:18:15.633Z,99284.78
2023-05-16T05:22:18.922Z,99284.69
2023-05-16T05:26:22.263Z,99297.78
2023-05-16T05:30:26.730Z,99319.72
2023-05-16T05:34:29.744Z,99327.63
2023-05-16T05:38:32.761Z,99325.72
2023-05-16T05:42:35.874Z,99316.69
2023-05-16T05:46:40.691Z,99313.81
2023-05-16T05:50:43.996Z,99309.31
2023-05-16T05:54:47.219Z,99317.28
2023-05-16T05:58:50.220Z,99314.53
2023-05-16T06:02:54.714Z,99316.25
2023-05-16T06:06:57.966Z,99320.59
2023-05-16T06:11:01.685Z,99323.16
2023-05-16T06:15:05.638Z,99308.94
2023-05-16T06:19:12.578Z,99304.38
2023-05-16T06:23:15.865Z,99302.53
2023-05-16T06:27:18.878Z,99301.56
2023-05-16T06:31:21.886Z,99295.22
2023-05-16T06:35:26.682Z,99306.63
2023-05-16T06:39:29.788Z,99295.09
2023-05-16T06:43:32.873Z,99304.75
2023-05-16T06:47:35.922Z,99301.22
2023-05-16T06:51:40.606Z,99296.75
2023-05-16T06:55:43.704Z,99300.19
2023-05-16T06:59:46.839Z,99297.41
2023-05-16T07:03:50.013Z,99291.84
2023-05-16T07:07:54.933Z,99294.25
2023-05-16T07:11:58.001Z,99285.25
2023-05-16T07:16:01.336Z,99298.50
2023-05-16T07:20:05.463Z,99302.78
2023-05-16T07:24:10.167Z,99301.06
2023-05-16T07:28:13.189Z,99307.13
2023-05-16T07:32:16.627Z,99303.66
2023-05-16T07:36:19.814Z,99308.97
2023-05-16T07:40:28.334Z,99309.09
2023-05-16T07:44:31.444Z,99313.66
2023-05-16T07:48:34.590Z,99324.34
2023-05-16T07:52:37.686Z,99334.19
2023-05-16T07:56:42.133Z,99334.31
2023-05-16T08:00:45.205Z,99346.63
2023-05-16T08:04:48.934Z,99355.41
2023-05-16T08:08:51.960Z,99365.03
2023-05-16T08:12:56.510Z,99367.66
2023-05-16T08:17:00.470Z,99384.50
2023-05-16T08:21:04.043Z,99399.50
2023-05-16T08:25:09.051Z,99411.88
2023-05-16T08:29:13.448Z,99410.09
2023-05-16T08:33:16.668Z,99412.66
2023-05-16T08:37:19.774Z,99415.25
2023-05-16T08:41:23.028Z,99409.91
2023-05-16T08:45:27.843Z,99404.63
2023-05-16T08:49:32.963Z,99403.91
2023-05-16T08:53:45.530Z,99411.09
2023-05-16T08:57:51.090Z,99396.13
2023-05-16T09:01:56.510Z,99382.19
2023-05-16T09:05:59.937Z,99367.25
2023-05-16T09:10:03.097Z,99353.97
2023-05-16T09:14:06.272Z,99348.81
2023-05-16T09:18:14.400Z,99353.28
2023-05-16T09:22:17.533Z,99340.19
2023-05-16T09:26:20.737Z,99334.00
2023-05-16T09:30:25.094Z,99327.06
2023-05-16T09:34:29.483Z,99319.13
2023-05-16T09:38:32.519Z,99322.66
2023-05-16T09:42:35.618Z,99304.25
2023-05-16T09:46:39.596Z,99303.44
2023-05-16T09:50:49.881Z,99306.09
2023-05-16T09:54:53.363Z,99313.25
2023-05-16T09:58:56.926Z,99329.28
2023-05-16T10:03:03.449Z,99337.28
2023-05-16T10:07:11.043Z,99342.59
2023-05-16T10:11:15.269Z,99342.50
2023-05-16T10:15:19.358Z,99347.75
2023-05-16T10:19:26.497Z,99364.44
2023-05-16T10:23:34.045Z,99375.81
2023-05-16T10:27:37.608Z,99363.34
2023-05-16T10:31:40.787Z,99360.56
2023-05-16T10:35:45.107Z,99370.22
2023-05-16T10:39:50.013Z,99379.00
2023-05-16T10:44:02.857Z,99371.03
2023-05-16T10:48:08.883Z,99366.72
2023-05-16T10:52:13.420Z,99370.28
2023-05-16T10:56:24.255Z,99375.53
2023-05-16T11:00:27.293Z,99373.69
2023-05-16T11:04:49.613Z,99365.75
2023-05-16T11:09:05.456Z,99371.88
2023-05-16T11:13:10.179Z,99369.19
2023-05-16T11:17:15.420Z,99361.34
2023-05-16T11:21:18.842Z,99366.81
2023-05-16T11:25:39.341Z,99356.16
2023-05-16T11:29:43.776Z,99351.75
2023-05-16T11:33:48.046Z,99339.34
2023-05-16T11:37:51.167Z,99329.66
2023-05-16T11:41:57.544Z,99327.84
2023-05-16T11:46:01.929Z,99327.84
2023-05-16T11:50:06.466Z,99318.22
2023-05-16T11:54:10.967Z,99310.31
2023-05-16T11:58:14.032Z,99305.97
2023-05-16T12:02:18.465Z,99310.44
2023-05-16T12:06:21.568Z,99303.44
2023-05-16T12:10:24.637Z,99298.06
2023-05-16T12:14:28.032Z,99290.91
2023-05-16T12:18:33.148Z,99288.13
2023-05-16T12:22:36.509Z,99289.06
2023-05-16T12:26:42.781Z,99284.66
2023-05-16T12:30:47.953Z,99286.38
2023-05-16T12:34:53.661Z,99283.59
2023-05-16T12:38:56.898Z,99268.50
2023-05-16T12:42:59.937Z,99251.63
2023-05-16T12:47:03.943Z,99261.25
2023-05-16T12:51:16.406Z,99241.00
2023-05-16T12:55:19.632Z,99240.03
2023-05-16T12:59:22.818Z,99250.69
2023-05-16T13:03:26.024Z,99245.31
2023-05-16T13:07:30.718Z,99243.63
2023-05-16T13:11:33.777Z,99235.66
2023-05-16T13:15:36.790Z,99225.06
2023-05-16T13:19:39.831Z,99230.44
2023-05-16T13:23:44.343Z,99218.06
2023-05-16T13:27:49.402Z,99193.38
2023-05-16T13:31:52.478Z,99188.94
2023-05-16T13:35:56.602Z,99200.44
2023-05-16T13:40:01.038Z,99217.19
2023-05-16T13:44:04.131Z,99218.06
2023-05-16T13:48:08.324Z,99218.06
2023-05-16T13:52:11.549Z,99224.34
2023-05-16T13:56:16.570Z,99223.53
2023-05-16T14:04:27.198Z,99225.44
2023-05-16T14:08:30.332Z,99204.34
2023-05-16T14:12:34.791Z,99196.34
2023-05-16T14:16:37.881Z,99197.34
2023-05-16T14:20:41.139Z,99184.97
2023-05-16T14:24:44.319Z,99184.97
2023-05-16T14:28:48.704Z,99186.72
2023-05-16T14:32:51.791Z,99195.50
2023-05-16T14:36:54.871Z,99191.03
2023-05-16T14:40:57.902Z,99186.47
2023-05-16T14:45:02.373Z,99181.19
2023-05-16T14:49:05.421Z,99177.53
2023-05-16T14:53:08.600Z,99178.47
2023-05-16T14:57:11.865Z,99176.75
2023-05-16T15:01:16.762Z,99167.16
2023-05-16T15:05:20.576Z,99174.38
2023-05-16T15:09:24.488Z,99170.06
2023-05-16T15:13:28.139Z,99174.44
2023-05-16T15:17:32.577Z,99176.25
2023-05-16T15:21:35.684Z,99176.25
2023-05-16T15:25:39.068Z,99170.97
2023-05-16T15:29:42.211Z,99171.03
2023-05-16T15:33:48.380Z,99160.41
2023-05-16T15:37:52.966Z,99174.59
2023-05-16T15:42:10.216Z,99168.41
2023-05-16T15:46:14.398Z,99170.28
2023-05-16T15:50:18.882Z,99169.44
2023-05-16T15:54:22.274Z,99161.59
2023-05-16T15:58:25.508Z,99160.72
2023-05-16T16:02:28.670Z,99156.38
2023-05-16T16:06:33.285Z,99155.59
2023-05-16T16:10:36.389Z,99144.94
2023-05-16T16:14:39.405Z,99127.34
2023-05-16T16:18:43.061Z,99129.09
2023-05-16T16:22:47.656Z,99121.09
2023-05-16T16:26:50.918Z,99128.25
2023-05-16T16:30:53.954Z,99122.06
2023-05-16T16:34:57.192Z,99119.41
2023-05-16T16:39:01.821Z,99117.59
2023-05-16T16:43:06.031Z,99115.00
2023-05-16T16:47:10.006Z,99123.88
2023-05-16T16:51:13.477Z,99119.53
2023-05-16T16:55:18.102Z,99107.25
2023-05-16T16:59:21.753Z,99112.59
2023-05-16T17:03:24.838Z,99102.94
2023-05-16T17:07:28.110Z,99109.09
2023-05-16T17:11:36.049Z,99110.84
2023-05-16T17:15:39.247Z,99110.00
2023-05-16T17:19:42.246Z,99106.53
2023-05-16T17:23:45.256Z,99110.00
2023-05-16T17:27:49.801Z,99109.19
2023-05-16T17:31:52.823Z,99118.88
2023-05-16T17:35:56.367Z,99122.44
2023-05-16T17:39:59.751Z,99124.19
2023-05-16T17:44:06.904Z,99136.56
2023-05-16T17:48:10.302Z,99129.53
2023-05-16T17:52:14.799Z,99142.91
2023-05-16T17:56:18.664Z,99145.66
2023-05-16T18:00:23.652Z,99142.25
2023-05-16T18:04:27.604Z,99144.13
2023-05-16T18:08:30.784Z,99138.91
2023-05-16T18:12:33.872Z,99149.56
2023-05-16T18:16:38.311Z,99132.00
2023-05-16T18:20:41.428Z,99131.19
2023-05-16T18:24:44.695Z,99143.56
2023-05-16T18:28:47.896Z,99142.81
2023-05-16T18:32:52.362Z,99160.47
2023-05-16T18:36:55.747Z,99166.69
2023-05-16T18:40:58.821Z,99170.25
2023-05-16T18:45:01.891Z,99160.66
2023-05-16T18:49:06.316Z,99163.34
2023-05-16T18:53:09.516Z,99151.94
2023-05-16T18:57:13.244Z,99153.81
2023-05-16T19:01:16.434Z,99160.06
2023-05-16T19:05:21.145Z,99162.78
2023-05-16T19:09:25.023Z,99162.78
2023-05-16T19:13:28.282Z,99176.03
2023-05-16T19:17:31.427Z,99174.25
2023-05-16T19:21:36.116Z,99184.00
2023-05-16T19:25:45.615Z,99188.34
2023-05-16T19:29:49.165Z,99196.28
2023-05-16T19:33:52.643Z,99193.59
2023-05-16T19:37:57.264Z,99203.28
2023-05-16T19:42:06.951Z,99212.03
2023-05-16T19:46:10.797Z,99217.34
2023-05-16T19:50:13.957Z,99212.09
2023-05-16T19:54:20.763Z,99220.97
2023-05-16T19:58:23.878Z,99214.81
2023-05-16T20:02:27.171Z,99216.56
2023-05-16T20:06:30.310Z,99210.41
2023-05-16T20:10:35.476Z,99210.44
2023-05-16T20:14:41.192Z,99206.94
2023-05-16T20:18:44.439Z,99203.38
2023-05-16T20:22:48.220Z,99196.41
2023-05-16T20:26:52.730Z,99176.13
2023-05-16T20:30:56.423Z,99164.72
2023-05-16T20:34:59.487Z,99163.03
2023-05-16T20:39:02.513Z,99167.41
2023-05-16T20:43:07.012Z,99163.06
2023-05-16T20:47:10.059Z,99166.59
2023-05-16T20:51:13.121Z,99170.06
2023-05-16T20:55:16.200Z,99168.31
2023-05-16T20:59:20.637Z,99163.06
2023-05-16T21:03:23.663Z,99163.91
2023-05-16T21:07:26.863Z,99171.03
2023-05-16T21:11:32.784Z,99174.56
2023-05-16T21:15:38.500Z,99190.41
2023-05-16T21:19:41.637Z,99199.25
2023-05-16T21:23:44.829Z,99192.31
2023-05-16T21:27:47.843Z,99187.94
2023-05-16T21:31:52.359Z,99175.59
2023-05-16T21:35:55.834Z,99182.69
2023-05-16T21:39:58.953Z,99191.53
2023-05-16T21:44:01.972Z,99202.09
2023-05-16T21:48:07.238Z,99196.81
2023-05-16T21:52:10.377Z,99199.53
2023-05-16T21:56:13.686Z,99198.69
2023-05-16T22:00:17.885Z,99206.66
2023-05-16T22:04:22.372Z,99214.53
2023-05-16T22:08:25.575Z,99220.78
2023-05-16T22:12:29.936Z,99227.00
2023-05-16T22:16:32.934Z,99226.13
2023-05-16T22:20:37.366Z,99232.31
2023-05-16T22:24:40.599Z,99233.22
2023-05-16T22:28:43.630Z,99232.34
2023-05-16T22:32:47.143Z,99208.59
2023-05-16T22:36:51.793Z,99197.22
2023-05-16T22:40:55.374Z,99192.00
2023-05-16T22:44:58.570Z,99198.28
2023-05-16T22:49:01.739Z,99191.22
2023-05-16T22:53:06.251Z,99193.94
2023-05-16T22:57:09.338Z,99193.97
2023-05-16T23:01:12.453Z,99195.81
2023-05-16T23:05:15.488Z,99195.00
2023-05-16T23:09:19.932Z,99209.09
2023-05-16T23:13:23.325Z,99214.44
2023-05-16T23:17:26.354Z,99218.03
2023-05-16T23:21:29.450Z,99222.50
2023-05-16T23:25:33.827Z,99240.16
2023-05-16T23:29:36.979Z,99237.56
2023-05-16T23:33:40.310Z,99232.31
2023-05-16T23:37:43.339Z,99235.84
2023-05-16T23:41:47.935Z,99224.47
2023-05-16T23:45:50.931Z,99233.28
2023-05-16T23:49:53.914Z,99236.00
2023-05-16T23:53:56.942Z,99236.94
2023-05-16T23:58:01.272Z,99236.94
